createdAt,value
2022-10-13T00:00:31.967Z,6.47
2022-10-13T00:03:00.212Z,8.90
2022-10-13T00:05:29.012Z,7.93
2022-10-13T00:07:56.319Z,8.67
2022-10-13T00:10:23.680Z,5.80
2022-10-13T00:12:50.653Z,6.33
2022-10-13T00:15:18.442Z,4.97
2022-10-13T00:17:45.314Z,5.80
2022-10-13T00:20:12.698Z,6.93
2022-10-13T00:22:41.056Z,7.30
2022-10-13T00:25:08.667Z,6.13
2022-10-13T00:27:35.371Z,6.97
2022-10-13T00:30:02.128Z,5.90
2022-10-13T00:32:29.373Z,7.33
2022-10-13T00:34:56.097Z,5.73
2022-10-13T00:37:22.858Z,7.13
2022-10-13T00:39:50.935Z,6.77
2022-10-13T00:42:17.869Z,8.67
2022-10-13T00:45:03.746Z,7.37
2022-10-13T00:47:36.033Z,7.90
2022-10-13T00:50:04.339Z,7.57
2022-10-13T00:52:32.965Z,5.93
2022-10-13T00:55:03.851Z,8.77
2022-10-13T00:57:30.651Z,7.57
2022-10-13T00:59:58.763Z,8.50
2022-10-13T01:02:31.290Z,6.50
2022-10-13T01:04:59.830Z,7.40
2022-10-13T01:07:26.633Z,8.23
2022-10-13T01:09:53.447Z,9.37
2022-10-13T01:12:40.226Z,6.73
2022-10-13T01:15:12.116Z,6.50
2022-10-13T01:17:48.798Z,7.20
2022-10-13T01:20:58.413Z,8.27
2022-10-13T01:23:55.518Z,6.23
2022-10-13T01:26:52.853Z,6.57
2022-10-13T01:29:47.803Z,7.77
2022-10-13T01:32:19.821Z,7.10
2022-10-13T01:34:53.174Z,6.63
2022-10-13T01:37:25.886Z,6.90
2022-10-13T01:39:57.499Z,7.27
2022-10-13T01:42:31.955Z,8.77
2022-10-13T01:45:02.487Z,7.00
2022-10-13T01:47:31.332Z,8.63
2022-10-13T01:49:59.670Z,7.90
2022-10-13T01:52:32.464Z,7.00
2022-10-13T01:55:06.755Z,8.10
2022-10-13T01:57:35.895Z,7.80
2022-10-13T02:00:07.747Z,7.60
2022-10-13T02:02:41.799Z,8.07
2022-10-13T02:05:17.741Z,7.90
2022-10-13T02:07:48.357Z,7.27
2022-10-13T02:10:20.589Z,8.10
2022-10-13T02:12:51.874Z,9.00
2022-10-13T02:15:23.352Z,6.60
2022-10-13T02:17:51.126Z,8.67
2022-10-13T02:20:19.955Z,8.60
2022-10-13T02:22:51.065Z,7.17
2022-10-13T02:25:17.993Z,8.60
2022-10-13T02:27:44.763Z,7.03
2022-10-13T02:30:22.603Z,8.53
2022-10-13T02:32:49.480Z,6.60
2022-10-13T02:35:16.288Z,9.13
2022-10-13T02:37:43.146Z,8.70
2022-10-13T02:40:11.124Z,8.17
2022-10-13T02:42:37.905Z,10.77
2022-10-13T02:45:05.843Z,5.33
2022-10-13T02:47:33.958Z,10.23
2022-10-13T02:50:00.859Z,9.20
2022-10-13T02:52:27.605Z,8.97
2022-10-13T02:54:54.306Z,8.53
2022-10-13T02:57:21.076Z,10.20
2022-10-13T02:59:47.835Z,5.17
2022-10-13T03:02:14.760Z,6.17
2022-10-13T03:04:43.088Z,5.60
2022-10-13T03:07:10.128Z,7.03
2022-10-13T03:09:36.894Z,7.73
2022-10-13T03:12:03.788Z,5.80
2022-10-13T03:14:30.502Z,6.37
2022-10-13T03:16:57.225Z,8.53
2022-10-13T03:19:24.286Z,7.27
2022-10-13T03:21:52.380Z,8.13
2022-10-13T03:24:19.148Z,7.47
2022-10-13T03:26:45.900Z,7.70
2022-10-13T03:29:14.357Z,5.50
2022-10-13T03:31:41.164Z,6.47
2022-10-13T03:34:07.951Z,8.80
2022-10-13T03:36:34.764Z,5.80
2022-10-13T03:39:02.879Z,7.57
2022-10-13T03:41:29.565Z,9.83
2022-10-13T03:43:56.328Z,7.83
2022-10-13T03:46:26.309Z,7.17
2022-10-13T03:48:53.114Z,6.70
2022-10-13T03:51:21.182Z,7.50
2022-10-13T03:53:49.021Z,8.17
2022-10-13T03:56:19.767Z,10.13
2022-10-13T03:58:46.494Z,8.00
2022-10-13T04:01:13.849Z,8.37
2022-10-13T04:03:40.618Z,7.13
2022-10-13T04:06:07.505Z,10.30
2022-10-13T04:08:34.649Z,8.30
2022-10-13T04:11:02.482Z,10.30
2022-10-13T04:13:30.611Z,6.87
2022-10-13T04:16:02.018Z,7.77
2022-10-13T04:18:28.829Z,8.10
2022-10-13T04:20:55.604Z,8.23
2022-10-13T04:23:22.303Z,8.83
2022-10-13T04:25:49.159Z,9.07
2022-10-13T04:28:16.087Z,9.00
2022-10-13T04:30:49.114Z,9.13
2022-10-13T04:33:16.258Z,8.70
2022-10-13T04:35:43.005Z,8.60
2022-10-13T04:38:09.755Z,7.50
2022-10-13T04:40:36.494Z,7.70
2022-10-13T04:43:03.506Z,8.20
2022-10-13T04:45:30.506Z,7.13
2022-10-13T04:48:00.166Z,6.37
2022-10-13T04:50:26.984Z,8.23
2022-10-13T04:52:53.717Z,7.07
2022-10-13T04:55:20.464Z,7.60
2022-10-13T04:57:47.258Z,9.40
2022-10-13T05:00:14.555Z,8.77
2022-10-13T05:02:41.329Z,7.77
2022-10-13T05:05:10.212Z,7.83
2022-10-13T05:07:37.140Z,9.87
2022-10-13T05:10:04.298Z,8.27
2022-10-13T05:12:31.019Z,11.07
2022-10-13T05:14:57.781Z,5.90
2022-10-13T05:17:24.639Z,8.50
2022-10-13T05:19:51.367Z,11.10
2022-10-13T05:22:19.688Z,11.70
2022-10-13T05:24:46.807Z,11.37
2022-10-13T05:27:13.917Z,8.83
2022-10-13T05:29:41.265Z,11.67
2022-10-13T05:32:08.580Z,10.10
2022-10-13T05:34:35.423Z,8.73
2022-10-13T05:37:02.302Z,9.33
2022-10-13T05:39:30.544Z,9.70
2022-10-13T05:41:57.370Z,12.37
2022-10-13T05:44:24.158Z,8.37
2022-10-13T05:46:50.987Z,9.03
2022-10-13T05:49:17.965Z,8.97
2022-10-13T05:51:47.804Z,9.10
2022-10-13T05:54:17.731Z,11.23
2022-10-13T05:56:51.612Z,9.47
2022-10-13T05:59:24.568Z,9.33
2022-10-13T06:01:53.306Z,10.67
2022-10-13T06:04:24.801Z,11.30
2022-10-13T06:06:56.335Z,11.50
2022-10-13T06:09:23.254Z,9.80
2022-10-13T06:11:51.454Z,9.77
2022-10-13T06:14:18.357Z,10.27
2022-10-13T06:16:45.192Z,8.90
2022-10-13T06:19:12.075Z,11.47
2022-10-13T06:21:38.938Z,11.07
2022-10-13T06:24:06.181Z,9.40
2022-10-13T06:26:33.196Z,11.10
2022-10-13T06:29:01.543Z,7.77
2022-10-13T06:31:28.484Z,13.47
2022-10-13T06:33:55.460Z,11.90
2022-10-13T06:36:22.298Z,12.07
2022-10-13T06:38:49.073Z,10.87
2022-10-13T06:41:15.973Z,13.13
2022-10-13T06:43:42.999Z,12.60
2022-10-13T06:46:13.185Z,9.00
2022-10-13T06:48:40.085Z,14.60
2022-10-13T06:51:09.463Z,13.93
2022-10-13T06:53:36.876Z,15.20
2022-10-13T06:56:06.531Z,12.77
2022-10-13T06:58:34.529Z,13.30
2022-10-13T07:01:01.454Z,13.33
2022-10-13T07:03:29.974Z,13.47
2022-10-13T07:06:01.029Z,10.80
2022-10-13T07:08:27.930Z,12.97
2022-10-13T07:10:54.793Z,13.70
2022-10-13T07:15:53.274Z,10.10
2022-10-13T07:18:20.035Z,11.40
2022-10-13T07:20:48.115Z,13.23
2022-10-13T07:23:14.901Z,12.77
2022-10-13T07:25:41.680Z,12.20
2022-10-13T07:28:08.526Z,11.73
2022-10-13T07:30:35.326Z,13.17
2022-10-13T07:33:02.151Z,12.40
2022-10-13T07:35:30.925Z,11.03
2022-10-13T07:37:59.282Z,9.77
2022-10-13T07:40:25.991Z,14.07
2022-10-13T07:42:52.712Z,12.77
2022-10-13T07:45:19.460Z,14.13
2022-10-13T07:47:46.218Z,12.70
2022-10-13T07:50:13.138Z,14.10
2022-10-13T07:52:39.974Z,14.13
2022-10-13T07:55:09.228Z,13.80
2022-10-13T07:57:36.023Z,12.83
2022-10-13T08:00:03.896Z,13.80
2022-10-13T08:02:30.605Z,13.87
2022-10-13T08:04:58.458Z,14.53
2022-10-13T08:07:25.198Z,14.83
2022-10-13T08:09:52.247Z,14.53
2022-10-13T08:12:20.680Z,13.77
2022-10-13T08:14:50.503Z,14.97
2022-10-13T08:17:17.426Z,16.80
2022-10-13T08:19:44.486Z,15.60
2022-10-13T08:22:11.475Z,17.00
2022-10-13T08:24:38.238Z,15.50
2022-10-13T08:27:04.959Z,18.10
2022-10-13T08:29:33.168Z,17.47
2022-10-13T08:32:00.145Z,15.90
2022-10-13T08:34:27.003Z,16.43
2022-10-13T08:36:54.800Z,17.33
2022-10-13T08:39:22.995Z,17.57
2022-10-13T08:41:50.362Z,18.13
2022-10-13T08:47:18.480Z,17.33
2022-10-13T08:49:45.448Z,17.80
2022-10-13T08:52:18.745Z,19.00
2022-10-13T08:54:45.922Z,17.57
2022-10-13T08:57:12.720Z,16.47
2022-10-13T08:59:39.774Z,18.03
2022-10-13T09:02:14.180Z,17.67
2022-10-13T09:04:44.176Z,17.43
2022-10-13T09:07:14.798Z,18.93
2022-10-13T09:09:41.610Z,18.17
2022-10-13T09:12:12.108Z,17.13
2022-10-13T09:14:40.314Z,16.70
2022-10-13T09:17:17.097Z,18.73
2022-10-13T09:19:44.859Z,16.40
2022-10-13T09:22:21.682Z,18.60
2022-10-13T09:25:01.501Z,18.97
2022-10-13T09:27:28.383Z,18.90
2022-10-13T09:29:55.131Z,18.20
2022-10-13T09:32:35.387Z,17.30
2022-10-13T09:35:20.319Z,17.97
2022-10-13T09:38:01.268Z,15.90
2022-10-13T09:40:28.372Z,16.40
2022-10-13T09:42:55.273Z,15.67
2022-10-13T09:45:24.707Z,16.23
2022-10-13T09:47:55.688Z,16.50
2022-10-13T09:50:25.734Z,15.43
2022-10-13T09:52:53.282Z,17.67
2022-10-13T09:55:32.421Z,15.00
2022-10-13T09:58:05.517Z,16.20
2022-10-13T10:00:33.339Z,14.17
2022-10-13T10:03:06.133Z,13.83
2022-10-13T10:05:43.041Z,14.40
2022-10-13T10:08:16.008Z,14.57
2022-10-13T10:10:43.624Z,14.07
2022-10-13T10:13:12.240Z,14.13
2022-10-13T10:15:48.443Z,15.63
2022-10-13T10:18:21.619Z,13.00
2022-10-13T10:21:02.523Z,14.50
2022-10-13T10:23:38.752Z,14.83
2022-10-13T10:26:11.679Z,13.33
2022-10-13T10:28:53.559Z,12.80
2022-10-13T10:31:31.829Z,12.13
2022-10-13T10:34:16.838Z,12.80
2022-10-13T10:36:53.226Z,12.30
2022-10-13T10:39:30.327Z,12.30
2022-10-13T10:42:06.100Z,12.20
2022-10-13T10:44:36.643Z,11.80
2022-10-13T10:47:07.573Z,11.97
2022-10-13T10:49:37.060Z,10.80
2022-10-13T10:52:10.162Z,11.17
2022-10-13T10:54:48.410Z,11.93
2022-10-13T10:57:23.155Z,8.70
2022-10-13T10:59:59.657Z,10.17
2022-10-13T11:02:43.296Z,12.07
2022-10-13T11:05:12.302Z,10.57
2022-10-13T11:07:58.007Z,9.23
2022-10-13T11:10:25.247Z,10.50
2022-10-13T11:13:25.089Z,11.83
2022-10-13T11:15:52.327Z,10.33
2022-10-13T11:18:56.961Z,11.80
2022-10-13T11:21:25.372Z,11.33
2022-10-13T11:23:52.251Z,10.80
2022-10-13T11:26:28.791Z,11.07
2022-10-13T11:28:55.693Z,10.67
2022-10-13T11:31:47.647Z,10.17
2022-10-13T11:34:30.706Z,10.20
2022-10-13T11:37:01.273Z,9.97
2022-10-13T11:39:53.853Z,9.30
2022-10-13T11:43:08.245Z,7.00
2022-10-13T11:45:50.413Z,6.43
2022-10-13T11:48:38.292Z,6.27
2022-10-13T11:51:16.441Z,6.53
2022-10-13T11:53:53.470Z,6.10
2022-10-13T11:56:22.306Z,8.70
2022-10-13T11:58:49.472Z,7.23
2022-10-13T12:01:17.506Z,6.40
2022-10-13T12:03:46.052Z,6.30
2022-10-13T12:06:25.633Z,7.20
2022-10-13T12:08:53.906Z,6.57
2022-10-13T12:11:25.895Z,6.73
2022-10-13T12:13:53.566Z,6.20
2022-10-13T12:16:21.827Z,8.60
2022-10-13T12:18:49.187Z,8.00
2022-10-13T12:21:18.544Z,6.97
2022-10-13T12:23:46.151Z,7.87
2022-10-13T12:26:17.737Z,8.30
2022-10-13T12:28:51.869Z,6.40
2022-10-13T12:31:21.233Z,7.27
2022-10-13T12:33:53.404Z,6.93
2022-10-13T12:36:22.603Z,6.73
2022-10-13T12:38:52.591Z,6.03
2022-10-13T12:41:27.135Z,5.73
2022-10-13T12:43:55.215Z,6.37
2022-10-13T12:46:39.011Z,7.57
2022-10-13T12:49:06.420Z,6.13
2022-10-13T12:51:33.716Z,6.33
2022-10-13T12:54:00.801Z,5.70
2022-10-13T12:56:31.327Z,6.43
2022-10-13T12:58:58.948Z,6.87
2022-10-13T13:01:29.446Z,6.80
2022-10-13T13:03:58.941Z,7.70
2022-10-13T13:06:37.251Z,7.97
2022-10-13T13:09:21.697Z,4.97
2022-10-13T13:12:20.448Z,6.37
2022-10-13T13:14:48.774Z,6.33
2022-10-13T13:17:38.830Z,6.57
2022-10-13T13:20:20.367Z,6.70
2022-10-13T13:22:47.290Z,6.07
2022-10-13T13:25:15.344Z,6.87
2022-10-13T13:27:43.735Z,7.10
2022-10-13T13:30:12.939Z,6.20
2022-10-13T13:32:40.288Z,6.27
2022-10-13T13:35:08.007Z,5.57
2022-10-13T13:37:37.955Z,5.80
2022-10-13T13:40:06.041Z,4.50
2022-10-13T13:42:33.598Z,6.50
2022-10-13T13:45:01.771Z,5.53
2022-10-13T13:47:29.233Z,6.97
2022-10-13T13:49:56.969Z,6.80
2022-10-13T13:52:24.608Z,6.13
2022-10-13T13:54:51.939Z,5.93
2022-10-13T13:57:20.439Z,3.60
2022-10-13T13:59:47.592Z,6.73
2022-10-13T14:02:18.234Z,6.60
2022-10-13T14:04:45.717Z,6.63
2022-10-13T14:07:12.786Z,5.40
2022-10-13T14:09:39.792Z,5.87
2022-10-13T14:12:06.803Z,6.37
2022-10-13T14:14:34.097Z,6.50
2022-10-13T14:17:01.891Z,6.93
2022-10-13T14:19:30.467Z,6.10
2022-10-13T14:21:58.151Z,6.70
2022-10-13T14:24:25.426Z,7.70
2022-10-13T14:26:52.652Z,7.13
2022-10-13T14:29:19.768Z,6.53
2022-10-13T14:31:46.710Z,6.20
2022-10-13T14:34:13.782Z,4.40
2022-10-13T14:36:42.380Z,6.80
2022-10-13T14:39:09.389Z,6.40
2022-10-13T14:41:36.379Z,5.70
2022-10-13T14:44:03.402Z,6.10
2022-10-13T14:46:30.649Z,5.90
2022-10-13T14:48:57.810Z,5.37
2022-10-13T14:51:25.065Z,6.03
2022-10-13T14:53:53.287Z,4.73
2022-10-13T14:56:21.892Z,5.53
2022-10-13T14:58:50.028Z,6.30
2022-10-13T15:01:17.906Z,4.47
2022-10-13T15:03:45.550Z,4.70
2022-10-13T15:06:14.310Z,4.50
2022-10-13T15:08:41.685Z,5.27
2022-10-13T15:11:10.372Z,4.80
2022-10-13T15:13:38.013Z,5.07
2022-10-13T15:16:05.811Z,5.23
2022-10-13T15:18:33.966Z,5.27
2022-10-13T15:21:00.764Z,3.87
2022-10-13T15:23:27.999Z,4.67
2022-10-13T15:25:56.641Z,4.70
2022-10-13T15:28:26.106Z,5.17
2022-10-13T15:30:53.055Z,4.67
2022-10-13T15:33:20.012Z,4.77
2022-10-13T15:35:48.303Z,4.67
2022-10-13T15:38:15.060Z,4.13
2022-10-13T15:40:42.033Z,4.77
2022-10-13T15:43:09.035Z,4.77
2022-10-13T15:45:37.759Z,4.77
2022-10-13T15:48:08.640Z,5.50
2022-10-13T15:50:39.505Z,5.20
2022-10-13T15:53:06.803Z,6.17
2022-10-13T15:55:33.628Z,4.67
2022-10-13T15:58:00.790Z,5.77
2022-10-13T16:00:27.640Z,4.83
2022-10-13T16:02:55.964Z,5.90
2022-10-13T16:05:22.949Z,5.37
2022-10-13T16:07:49.744Z,6.13
2022-10-13T16:10:16.790Z,5.03
2022-10-13T16:12:48.561Z,4.60
2022-10-13T16:15:16.955Z,4.60
2022-10-13T16:17:43.819Z,6.50
2022-10-13T16:20:12.849Z,5.47
2022-10-13T16:22:39.605Z,6.33
2022-10-13T16:25:07.547Z,5.30
2022-10-13T16:27:34.907Z,7.40
2022-10-13T16:30:01.726Z,6.10
2022-10-13T16:32:28.503Z,6.73
2022-10-13T16:34:55.296Z,5.80
2022-10-13T16:37:23.900Z,6.60
2022-10-13T16:39:52.070Z,5.10
2022-10-13T16:42:19.189Z,5.80
2022-10-13T16:44:45.887Z,5.70
2022-10-13T16:47:17.350Z,6.43
2022-10-13T16:49:44.936Z,5.90
2022-10-13T16:52:11.770Z,5.10
2022-10-13T16:54:40.108Z,5.43
2022-10-13T16:57:06.990Z,4.80
2022-10-13T16:59:33.971Z,5.10
2022-10-13T17:02:01.228Z,5.70
2022-10-13T17:04:28.390Z,4.97
2022-10-13T17:06:55.355Z,6.07
2022-10-13T17:09:22.868Z,5.40
2022-10-13T17:11:51.104Z,5.97
2022-10-13T17:14:17.865Z,5.10
2022-10-13T17:16:44.652Z,5.80
2022-10-13T17:19:11.519Z,6.00
2022-10-13T17:21:38.319Z,6.83
2022-10-13T17:24:05.365Z,6.27
2022-10-13T17:26:32.197Z,7.20
2022-10-13T17:29:00.683Z,6.20
2022-10-13T17:31:27.611Z,6.47
2022-10-13T17:33:54.448Z,5.40
2022-10-13T17:36:23.455Z,7.00
2022-10-13T17:38:51.543Z,6.30
2022-10-13T17:41:19.205Z,8.17
2022-10-13T17:43:46.200Z,7.43
2022-10-13T17:46:36.925Z,8.33
2022-10-13T17:49:03.616Z,6.90
2022-10-13T17:51:30.486Z,7.90
2022-10-13T17:53:59.483Z,7.03
2022-10-13T17:56:26.546Z,6.73
2022-10-13T17:58:53.449Z,6.33
2022-10-13T18:01:23.669Z,7.03
2022-10-13T18:03:51.891Z,6.00
2022-10-13T18:06:18.954Z,6.40
2022-10-13T18:08:46.289Z,6.30
2022-10-13T18:11:15.752Z,6.30
2022-10-13T18:13:44.124Z,5.23
2022-10-13T18:16:12.702Z,5.37
2022-10-13T18:18:41.471Z,6.50
2022-10-13T18:21:08.392Z,6.33
2022-10-13T18:23:37.258Z,5.57
2022-10-13T18:26:05.757Z,5.40
2022-10-13T18:28:34.005Z,5.03
2022-10-13T18:31:05.894Z,5.90
2022-10-13T18:33:33.039Z,4.50
2022-10-13T18:36:02.012Z,6.23
2022-10-13T18:38:28.899Z,5.70
2022-10-13T18:40:59.537Z,5.70
2022-10-13T18:43:26.296Z,5.20
2022-10-13T18:45:53.089Z,6.30
2022-10-13T18:48:19.985Z,6.10
2022-10-13T18:50:46.726Z,6.40
2022-10-13T18:53:15.098Z,5.70
2022-10-13T18:55:41.901Z,5.67
2022-10-13T18:58:08.720Z,5.50
2022-10-13T19:00:35.622Z,5.10
2022-10-13T19:03:02.602Z,6.30
2022-10-13T19:05:29.635Z,5.73
2022-10-13T19:07:56.483Z,6.27
2022-10-13T19:10:24.636Z,6.40
2022-10-13T19:12:51.395Z,6.77
2022-10-13T19:15:18.224Z,6.20
2022-10-13T19:17:45.015Z,6.10
2022-10-13T19:20:12.053Z,6.53
2022-10-13T19:22:38.840Z,7.60
2022-10-13T19:25:06.852Z,7.10
2022-10-13T19:27:35.044Z,6.13
2022-10-13T19:30:01.881Z,6.10
2022-10-13T19:32:28.703Z,6.00
2022-10-13T19:34:55.492Z,6.40
2022-10-13T19:37:22.853Z,6.57
2022-10-13T19:39:49.974Z,6.17
2022-10-13T19:42:16.981Z,6.77
2022-10-13T19:44:45.233Z,6.60
2022-10-13T19:47:12.098Z,6.70
2022-10-13T19:49:38.913Z,6.43
2022-10-13T19:52:05.636Z,7.87
2022-10-13T19:54:34.044Z,7.00
2022-10-13T19:57:01.031Z,6.97
2022-10-13T19:59:27.860Z,5.87
2022-10-13T20:01:56.128Z,6.50
2022-10-13T20:04:22.920Z,6.97
2022-10-13T20:06:50.597Z,7.77
2022-10-13T20:09:18.337Z,5.37
2022-10-13T20:11:51.855Z,5.80
2022-10-13T20:14:18.907Z,5.83
2022-10-13T20:16:48.828Z,6.47
2022-10-13T20:19:17.903Z,6.10
2022-10-13T20:21:44.752Z,5.53
2022-10-13T20:24:11.661Z,6.53
2022-10-13T20:26:38.387Z,7.00
2022-10-13T20:29:05.379Z,5.10
2022-10-13T20:31:32.197Z,4.87
2022-10-13T20:33:59.215Z,4.63
2022-10-13T20:36:28.207Z,4.93
2022-10-13T20:38:55.224Z,5.57
2022-10-13T20:41:24.284Z,4.17
2022-10-13T20:43:51.965Z,6.17
2022-10-13T20:46:19.660Z,5.10
2022-10-13T20:51:35.533Z,6.27
2022-10-13T20:54:02.545Z,5.67
2022-10-13T20:56:29.380Z,6.37
2022-10-13T20:58:56.258Z,5.47
2022-10-13T21:01:23.137Z,5.13
2022-10-13T21:03:51.841Z,5.07
2022-10-13T21:06:18.693Z,4.90
2022-10-13T21:08:47.034Z,5.40
2022-10-13T21:11:16.172Z,5.70
2022-10-13T21:13:44.133Z,5.90
2022-10-13T21:16:12.463Z,5.23
2022-10-13T21:18:39.644Z,6.37
2022-10-13T21:21:08.649Z,4.80
2022-10-13T21:23:36.827Z,5.07
2022-10-13T21:26:07.283Z,6.10
2022-10-13T21:28:36.192Z,8.50
2022-10-13T21:31:04.894Z,6.00
2022-10-13T21:33:34.418Z,5.60
2022-10-13T21:36:05.690Z,5.87
2022-10-13T21:38:32.453Z,5.23
2022-10-13T21:40:59.241Z,5.00
2022-10-13T21:43:27.500Z,5.20
2022-10-13T21:45:54.306Z,5.00
2022-10-13T21:48:21.075Z,5.20
2022-10-13T21:50:47.999Z,6.30
2022-10-13T21:53:14.777Z,6.00
2022-10-13T21:55:42.206Z,5.77
2022-10-13T21:58:08.990Z,6.00
2022-10-13T22:00:37.273Z,5.23
2022-10-13T22:03:04.207Z,5.73
2022-10-13T22:05:30.985Z,5.43
2022-10-13T22:07:57.835Z,5.80
2022-10-13T22:10:24.674Z,5.03
2022-10-13T22:12:51.478Z,5.57
2022-10-13T22:15:18.235Z,6.70
2022-10-13T22:17:46.389Z,5.70
2022-10-13T22:20:13.238Z,6.33
2022-10-13T22:22:40.107Z,5.63
2022-10-13T22:25:08.205Z,5.37
2022-10-13T22:27:34.963Z,5.53
2022-10-13T22:30:01.837Z,6.07
2022-10-13T22:32:28.883Z,6.40
2022-10-13T22:34:57.114Z,6.03
2022-10-13T22:37:24.034Z,6.77
2022-10-13T22:39:51.071Z,6.30
2022-10-13T22:42:17.983Z,5.77
2022-10-13T22:44:44.848Z,8.47
2022-10-13T22:47:11.631Z,7.87
2022-10-13T22:49:38.423Z,5.83
2022-10-13T22:52:06.694Z,5.40
2022-10-13T22:54:33.499Z,7.37
2022-10-13T22:57:00.259Z,6.87
2022-10-13T22:59:27.105Z,8.73
2022-10-13T23:01:53.963Z,8.80
2022-10-13T23:04:20.698Z,6.70
2022-10-13T23:06:47.549Z,8.13
2022-10-13T23:09:15.780Z,6.50
2022-10-13T23:11:42.640Z,5.60
2022-10-13T23:14:09.703Z,7.10
2022-10-13T23:16:36.467Z,6.13
2022-10-13T23:19:03.451Z,5.27
2022-10-13T23:21:30.896Z,6.47
2022-10-13T23:23:59.126Z,7.40
2022-10-13T23:26:28.725Z,5.77
2022-10-13T23:28:55.882Z,5.50
2022-10-13T23:31:22.950Z,5.30
2022-10-13T23:33:50.010Z,6.70
2022-10-13T23:36:18.773Z,6.63
2022-10-13T23:38:45.856Z,7.63
2022-10-13T23:41:14.393Z,9.20
2022-10-13T23:43:43.077Z,7.60
2022-10-13T23:46:10.273Z,7.53
2022-10-13T23:48:37.581Z,5.83
2022-10-13T23:51:08.961Z,6.30
2022-10-13T23:53:36.678Z,8.87
2022-10-13T23:56:04.167Z,6.83
2022-10-13T23:58:30.984Z,7.07
